createdAt,value
2022-12-18T00:01:25.725Z,80.38
2022-12-18T00:03:55.319Z,79.87
2022-12-18T00:06:24.194Z,79.90
2022-12-18T00:08:53.356Z,79.83
2022-12-18T00:11:22.271Z,79.74
2022-12-18T00:13:50.703Z,80.42
2022-12-18T00:16:21.235Z,80.75
2022-12-18T00:18:49.094Z,80.68
2022-12-18T00:21:17.263Z,80.66
2022-12-18T00:23:46.346Z,80.26
2022-12-18T00:26:17.930Z,80.66
2022-12-18T00:28:46.741Z,80.80
2022-12-18T00:31:16.320Z,80.99
2022-12-18T00:33:44.223Z,81.13
2022-12-18T00:36:14.958Z,81.16
2022-12-18T00:38:43.340Z,81.31
2022-12-18T00:41:12.634Z,80.97
2022-12-18T00:43:41.365Z,80.79
2022-12-18T00:46:09.455Z,80.37
2022-12-18T00:48:37.466Z,80.35
2022-12-18T00:51:05.120Z,80.20
2022-12-18T00:53:32.854Z,80.65
2022-12-18T00:56:00.487Z,80.54
2022-12-18T00:58:28.280Z,80.44
2022-12-18T01:00:57.273Z,80.94
2022-12-18T01:03:24.994Z,80.97
2022-12-18T01:05:52.683Z,80.55
2022-12-18T01:08:20.856Z,80.24
2022-12-18T01:10:48.474Z,80.23
2022-12-18T01:13:16.260Z,80.56
2022-12-18T01:15:50.199Z,80.75
2022-12-18T01:18:19.800Z,80.21
2022-12-18T01:20:47.443Z,79.98
2022-12-18T01:23:15.131Z,80.04
2022-12-18T01:25:42.878Z,80.28
2022-12-18T01:28:12.039Z,80.06
2022-12-18T01:30:39.971Z,79.69
2022-12-18T01:33:07.703Z,79.84
2022-12-18T01:35:43.695Z,79.75
2022-12-18T01:38:11.483Z,79.89
2022-12-18T01:40:39.495Z,79.40
2022-12-18T01:43:07.260Z,79.25
2022-12-18T01:45:34.974Z,79.25
2022-12-18T01:48:05.165Z,79.92
2022-12-18T01:50:36.986Z,80.39
2022-12-18T01:53:09.952Z,80.36
2022-12-18T01:55:43.035Z,79.79
2022-12-18T01:58:11.460Z,79.85
2022-12-18T02:00:39.225Z,79.92
2022-12-18T02:03:06.937Z,79.66
2022-12-18T02:05:42.027Z,79.58
2022-12-18T02:08:18.783Z,79.71
2022-12-18T02:10:53.884Z,80.08
2022-12-18T02:13:32.168Z,80.05
2022-12-18T02:16:06.881Z,79.73
2022-12-18T02:18:38.984Z,80.18
2022-12-18T02:21:14.574Z,79.74
2022-12-18T02:23:53.707Z,80.14
2022-12-18T02:26:28.319Z,79.36
2022-12-18T02:29:02.398Z,79.32
2022-12-18T02:31:37.379Z,79.42
2022-12-18T02:34:08.727Z,78.92
2022-12-18T02:36:43.213Z,79.29
2022-12-18T02:39:13.703Z,79.61
2022-12-18T02:41:50.340Z,79.32
2022-12-18T02:44:19.022Z,78.73
2022-12-18T02:46:48.430Z,79.37
2022-12-18T02:49:28.799Z,79.28
2022-12-18T02:52:07.005Z,79.61
2022-12-18T02:54:48.797Z,79.29
2022-12-18T02:57:25.882Z,79.36
2022-12-18T03:00:00.724Z,79.64
2022-12-18T03:02:35.851Z,79.78
2022-12-18T03:05:10.308Z,79.49
2022-12-18T03:07:41.336Z,79.40
2022-12-18T03:10:15.999Z,79.28
2022-12-18T03:12:53.391Z,79.35
2022-12-18T03:15:24.947Z,79.63
2022-12-18T03:18:05.163Z,79.91
2022-12-18T03:20:36.494Z,80.14
2022-12-18T03:23:09.191Z,80.87
2022-12-18T03:25:41.496Z,80.39
2022-12-18T03:28:15.231Z,79.47
2022-12-18T03:30:46.905Z,78.95
2022-12-18T03:33:20.524Z,78.82
2022-12-18T03:35:50.618Z,78.44
2022-12-18T03:38:19.671Z,78.06
2022-12-18T03:40:58.280Z,78.42
2022-12-18T03:43:38.694Z,78.69
2022-12-18T03:46:10.154Z,78.57
2022-12-18T03:48:43.317Z,78.70
2022-12-18T03:51:20.753Z,78.76
2022-12-18T03:53:58.104Z,78.59
2022-12-18T03:56:34.984Z,78.79
2022-12-18T03:59:06.369Z,78.84
2022-12-18T04:01:38.069Z,78.62
2022-12-18T04:04:08.270Z,78.96
2022-12-18T04:06:40.483Z,78.28
2022-12-18T04:09:10.847Z,78.69
2022-12-18T04:11:42.077Z,78.92
2022-12-18T04:14:16.069Z,78.54
2022-12-18T04:16:45.928Z,78.32
2022-12-18T04:19:16.800Z,78.63
2022-12-18T04:21:46.452Z,78.60
2022-12-18T04:24:15.374Z,78.90
2022-12-18T04:26:52.131Z,79.03
2022-12-18T04:29:26.567Z,79.11
2022-12-18T04:31:55.177Z,79.27
2022-12-18T04:34:24.327Z,79.23
2022-12-18T04:36:54.287Z,79.07
2022-12-18T04:39:24.102Z,78.87
2022-12-18T04:41:55.296Z,78.84
2022-12-18T04:44:22.983Z,79.01
2022-12-18T04:46:52.917Z,78.89
2022-12-18T04:49:20.647Z,78.87
2022-12-18T04:51:48.343Z,79.01
2022-12-18T04:54:16.829Z,78.72
2022-12-18T04:56:44.480Z,78.69
2022-12-18T04:59:12.124Z,78.70
2022-12-18T05:01:39.908Z,78.49
2022-12-18T05:04:09.210Z,78.73
2022-12-18T05:06:36.872Z,78.59
2022-12-18T05:09:04.825Z,78.19
2022-12-18T05:11:33.692Z,78.37
2022-12-18T05:14:01.398Z,78.45
2022-12-18T05:16:29.060Z,78.58
2022-12-18T05:18:56.747Z,78.56
2022-12-18T05:21:25.753Z,78.66
2022-12-18T05:23:53.376Z,78.95
2022-12-18T05:26:21.482Z,78.48
2022-12-18T05:28:49.119Z,78.27
2022-12-18T05:31:16.994Z,78.00
2022-12-18T05:33:44.736Z,78.46
2022-12-18T05:36:12.681Z,78.43
2022-12-18T05:38:41.796Z,78.79
2022-12-18T05:41:10.422Z,78.80
2022-12-18T05:43:40.189Z,78.63
2022-12-18T05:46:10.061Z,78.86
2022-12-18T05:48:37.814Z,79.79
2022-12-18T05:51:07.885Z,79.69
2022-12-18T05:53:37.341Z,79.39
2022-12-18T05:56:09.187Z,78.98
2022-12-18T05:58:37.639Z,78.65
2022-12-18T06:01:10.586Z,78.35
2022-12-18T06:03:38.571Z,78.58
2022-12-18T06:06:14.118Z,78.92
2022-12-18T06:08:46.143Z,78.79
2022-12-18T06:11:18.952Z,78.71
2022-12-18T06:13:46.683Z,78.63
2022-12-18T06:16:14.668Z,79.01
2022-12-18T06:18:42.419Z,78.59
2022-12-18T06:21:10.186Z,77.95
2022-12-18T06:23:39.112Z,77.85
2022-12-18T06:26:07.869Z,78.03
2022-12-18T06:28:36.999Z,77.97
2022-12-18T06:31:05.700Z,78.26
2022-12-18T06:33:33.699Z,78.81
2022-12-18T06:36:02.412Z,78.73
2022-12-18T06:38:30.099Z,78.75
2022-12-18T06:40:57.880Z,79.23
2022-12-18T06:43:25.702Z,79.53
2022-12-18T06:46:00.857Z,79.49
2022-12-18T06:48:28.725Z,79.40
2022-12-18T06:50:56.788Z,78.90
2022-12-18T06:53:24.715Z,78.71
2022-12-18T06:55:52.423Z,79.05
2022-12-18T06:58:20.301Z,79.19
2022-12-18T07:00:47.977Z,78.98
2022-12-18T07:03:17.054Z,78.44
2022-12-18T07:05:44.680Z,78.88
2022-12-18T07:08:12.353Z,78.78
2022-12-18T07:10:47.406Z,78.70
2022-12-18T07:13:15.230Z,79.05
2022-12-18T07:15:43.375Z,78.73
2022-12-18T07:18:11.870Z,77.97
2022-12-18T07:20:40.870Z,78.16
2022-12-18T07:23:08.549Z,78.06
2022-12-18T07:25:37.871Z,78.26
2022-12-18T07:28:06.146Z,78.62
2022-12-18T07:30:33.801Z,78.77
2022-12-18T07:33:01.483Z,78.88
2022-12-18T07:35:29.211Z,78.84
2022-12-18T07:37:58.228Z,78.79
2022-12-18T07:40:25.876Z,78.99
2022-12-18T07:42:53.538Z,78.49
2022-12-18T07:45:21.207Z,78.59
2022-12-18T07:47:48.868Z,78.35
2022-12-18T07:50:16.878Z,78.50
2022-12-18T07:52:44.564Z,78.54
2022-12-18T07:55:13.624Z,78.42
2022-12-18T07:57:50.442Z,78.65
2022-12-18T08:00:19.494Z,78.54
2022-12-18T08:02:49.408Z,77.70
2022-12-18T08:05:17.310Z,77.78
2022-12-18T08:07:44.956Z,77.72
2022-12-18T08:10:14.274Z,78.24
2022-12-18T08:12:41.950Z,78.12
2022-12-18T08:15:10.290Z,78.24
2022-12-18T08:17:38.127Z,78.47
2022-12-18T08:20:06.194Z,78.57
2022-12-18T08:22:38.482Z,78.47
2022-12-18T08:25:07.133Z,78.51
2022-12-18T08:27:36.143Z,78.34
2022-12-18T08:30:03.981Z,78.27
2022-12-18T08:32:33.704Z,77.88
2022-12-18T08:35:01.594Z,78.36
2022-12-18T08:37:29.303Z,78.33
2022-12-18T08:39:56.962Z,78.24
2022-12-18T08:42:42.038Z,78.36
2022-12-18T08:45:11.800Z,78.41
2022-12-18T08:47:39.484Z,78.38
2022-12-18T08:50:08.027Z,78.59
2022-12-18T08:52:35.695Z,79.47
2022-12-18T08:55:03.341Z,79.38
2022-12-18T08:57:30.989Z,79.45
2022-12-18T08:59:58.635Z,79.24
2022-12-18T09:02:27.919Z,79.12
2022-12-18T09:04:57.728Z,80.06
2022-12-18T09:07:25.548Z,79.78
2022-12-18T09:09:53.204Z,79.68
2022-12-18T09:12:20.928Z,79.25
2022-12-18T09:14:48.613Z,79.33
2022-12-18T09:17:16.360Z,79.17
2022-12-18T09:19:45.490Z,78.73
2022-12-18T09:22:13.285Z,78.37
2022-12-18T09:24:40.971Z,78.22
2022-12-18T09:27:08.671Z,78.40
2022-12-18T09:29:36.621Z,78.08
2022-12-18T09:32:04.302Z,78.39
2022-12-18T09:34:32.061Z,78.08
2022-12-18T09:37:01.086Z,78.12
2022-12-18T09:39:28.761Z,78.30
2022-12-18T09:41:59.303Z,77.88
2022-12-18T09:44:30.125Z,77.81
2022-12-18T09:47:06.923Z,77.96
2022-12-18T09:49:39.856Z,77.83
2022-12-18T09:52:13.817Z,77.46
2022-12-18T09:54:42.913Z,77.04
2022-12-18T09:57:15.347Z,77.04
2022-12-18T09:59:45.916Z,77.39
2022-12-18T10:02:20.179Z,77.31
2022-12-18T10:04:57.477Z,77.42
2022-12-18T10:07:37.316Z,77.52
2022-12-18T10:10:13.538Z,77.70
2022-12-18T10:12:48.906Z,77.55
2022-12-18T10:15:25.437Z,77.19
2022-12-18T10:17:56.653Z,77.78
2022-12-18T10:20:31.723Z,77.55
2022-12-18T10:23:10.399Z,78.06
2022-12-18T10:25:54.643Z,78.12
2022-12-18T10:28:23.551Z,77.74
2022-12-18T10:30:51.223Z,78.02
2022-12-18T10:33:21.119Z,77.69
2022-12-18T10:35:51.424Z,77.21
2022-12-18T10:38:27.299Z,77.54
2022-12-18T10:40:57.531Z,77.51
2022-12-18T10:43:27.895Z,76.47
2022-12-18T10:46:18.807Z,76.07
2022-12-18T10:48:54.279Z,75.34
2022-12-18T10:51:24.289Z,75.08
2022-12-18T10:53:59.012Z,75.10
2022-12-18T10:56:29.184Z,75.13
2022-12-18T10:59:01.950Z,74.73
2022-12-18T11:01:33.080Z,74.44
2022-12-18T11:04:03.980Z,74.10
2022-12-18T11:06:31.814Z,74.28
2022-12-18T11:09:12.235Z,74.26
2022-12-18T11:11:41.105Z,74.37
2022-12-18T11:14:19.069Z,74.04
2022-12-18T11:17:23.823Z,73.70
2022-12-18T11:19:39.021Z,74.03
2022-12-18T11:22:23.714Z,73.16
2022-12-18T11:25:30.841Z,72.65
2022-12-18T11:27:51.427Z,72.06
2022-12-18T11:30:26.015Z,72.26
2022-12-18T11:32:57.820Z,72.87
2022-12-18T11:35:36.681Z,72.38
2022-12-18T11:38:12.702Z,72.10
2022-12-18T11:40:46.529Z,72.03
2022-12-18T11:43:19.833Z,71.85
2022-12-18T11:45:53.811Z,71.83
2022-12-18T11:48:25.868Z,70.28
2022-12-18T11:50:55.896Z,70.35
2022-12-18T11:53:25.199Z,70.27
2022-12-18T11:56:04.246Z,70.43
2022-12-18T11:58:46.813Z,69.91
2022-12-18T12:01:24.018Z,69.27
2022-12-18T12:04:05.085Z,69.76
2022-12-18T12:06:42.935Z,69.07
2022-12-18T12:09:23.103Z,69.39
2022-12-18T12:12:09.376Z,69.30
2022-12-18T12:14:51.390Z,68.56
2022-12-18T12:17:30.530Z,68.69
2022-12-18T12:20:09.562Z,69.82
2022-12-18T12:22:42.979Z,69.40
2022-12-18T12:25:29.741Z,68.74
2022-12-18T12:28:10.172Z,68.20
2022-12-18T12:30:47.704Z,68.73
2022-12-18T12:33:29.054Z,68.58
2022-12-18T12:36:05.528Z,68.58
2022-12-18T12:38:37.062Z,68.13
2022-12-18T12:41:27.624Z,68.39
2022-12-18T12:43:59.012Z,68.36
2022-12-18T12:46:28.472Z,68.39
2022-12-18T12:48:58.877Z,68.73
2022-12-18T12:51:30.011Z,68.29
2022-12-18T12:54:00.111Z,68.49
2022-12-18T12:56:39.112Z,68.21
2022-12-18T12:59:18.150Z,67.97
2022-12-18T13:01:56.829Z,68.10
2022-12-18T13:04:34.141Z,67.51
2022-12-18T13:07:07.442Z,67.85
2022-12-18T13:09:37.111Z,67.89
2022-12-18T13:12:30.186Z,68.25
2022-12-18T13:15:23.854Z,66.87
2022-12-18T13:18:06.142Z,67.21
2022-12-18T13:20:39.860Z,67.57
2022-12-18T13:23:32.852Z,66.15
2022-12-18T13:26:26.477Z,65.29
2022-12-18T13:28:58.516Z,65.17
2022-12-18T13:32:09.001Z,65.66
2022-12-18T13:34:37.411Z,66.42
2022-12-18T13:37:44.669Z,65.79
2022-12-18T13:40:56.121Z,65.73
2022-12-18T13:43:43.781Z,65.48
2022-12-18T13:46:25.263Z,65.09
2022-12-18T13:49:02.661Z,65.88
2022-12-18T13:51:33.866Z,66.59
2022-12-18T13:54:04.002Z,65.48
2022-12-18T13:56:35.046Z,65.65
2022-12-18T13:59:16.590Z,65.69
2022-12-18T14:01:48.530Z,65.97
2022-12-18T14:04:23.571Z,65.44
2022-12-18T14:06:54.135Z,66.34
2022-12-18T14:09:25.948Z,66.73
2022-12-18T14:12:15.260Z,66.63
2022-12-18T14:14:48.029Z,65.88
2022-12-18T14:17:18.762Z,66.63
2022-12-18T14:19:49.611Z,66.51
2022-12-18T14:22:19.774Z,65.89
2022-12-18T14:24:48.045Z,65.67
2022-12-18T14:27:24.863Z,65.49
2022-12-18T14:29:52.596Z,65.27
2022-12-18T14:32:22.481Z,65.51
2022-12-18T14:34:52.162Z,64.81
2022-12-18T14:37:23.334Z,65.92
2022-12-18T14:39:56.216Z,65.79
2022-12-18T14:42:23.981Z,65.45
2022-12-18T14:45:12.866Z,65.44
2022-12-18T14:47:40.895Z,65.18
2022-12-18T14:50:15.565Z,64.98
2022-12-18T14:52:43.327Z,64.23
2022-12-18T14:55:17.593Z,63.63
2022-12-18T14:57:46.002Z,65.03
2022-12-18T15:00:19.353Z,64.75
2022-12-18T15:02:50.378Z,64.12
2022-12-18T15:05:21.012Z,63.49
2022-12-18T15:07:50.550Z,63.63
2022-12-18T15:10:20.996Z,62.51
2022-12-18T15:12:49.890Z,63.42
2022-12-18T15:15:50.104Z,61.48
2022-12-18T15:18:22.014Z,62.28
2022-12-18T15:20:51.738Z,62.52
2022-12-18T15:23:21.974Z,62.09
2022-12-18T15:25:56.135Z,61.61
2022-12-18T15:28:26.675Z,62.38
2022-12-18T15:31:05.954Z,61.81
2022-12-18T15:33:36.842Z,61.88
2022-12-18T15:36:07.352Z,62.20
2022-12-18T15:38:35.129Z,61.33
2022-12-18T15:41:02.911Z,61.53
2022-12-18T15:43:36.236Z,63.04
2022-12-18T15:46:05.540Z,61.48
2022-12-18T15:48:37.456Z,62.66
2022-12-18T15:51:06.779Z,61.84
2022-12-18T15:53:35.378Z,62.26
2022-12-18T15:56:20.680Z,61.44
2022-12-18T15:58:48.652Z,60.91
2022-12-18T16:01:17.352Z,59.78
2022-12-18T16:03:46.626Z,61.53
2022-12-18T16:06:14.438Z,59.90
2022-12-18T16:08:42.132Z,61.71
2022-12-18T16:11:38.616Z,60.45
2022-12-18T16:14:08.150Z,60.20
2022-12-18T16:16:35.905Z,60.59
2022-12-18T16:19:04.895Z,61.57
2022-12-18T16:21:34.258Z,60.84
2022-12-18T16:24:02.186Z,61.37
2022-12-18T16:26:29.886Z,61.12
2022-12-18T16:28:57.516Z,60.62
2022-12-18T16:31:25.368Z,60.07
2022-12-18T16:34:16.214Z,59.10
2022-12-18T16:36:43.927Z,60.39
2022-12-18T16:39:11.999Z,61.00
2022-12-18T16:41:39.682Z,59.93
2022-12-18T16:44:07.423Z,59.83
2022-12-18T16:46:35.297Z,60.56
2022-12-18T16:49:03.045Z,59.74
2022-12-18T16:51:32.071Z,59.92
2022-12-18T16:53:59.722Z,60.26
2022-12-18T16:56:27.411Z,61.17
2022-12-18T16:58:57.067Z,60.11
2022-12-18T17:01:29.963Z,59.38
2022-12-18T17:03:59.273Z,59.83
2022-12-18T17:06:29.516Z,59.60
2022-12-18T17:08:59.701Z,60.70
2022-12-18T17:11:28.893Z,59.95
2022-12-18T17:13:57.258Z,59.74
2022-12-18T17:16:26.906Z,58.93
2022-12-18T17:18:54.823Z,59.10
2022-12-18T17:21:22.538Z,59.35
2022-12-18T17:23:50.206Z,59.46
2022-12-18T17:26:19.194Z,59.64
2022-12-18T17:28:47.145Z,58.99
2022-12-18T17:31:18.358Z,59.39
2022-12-18T17:33:46.461Z,59.19
2022-12-18T17:36:14.675Z,57.81
2022-12-18T17:38:42.389Z,58.90
2022-12-18T17:41:11.857Z,58.47
2022-12-18T17:43:45.565Z,58.90
2022-12-18T17:46:15.057Z,58.82
2022-12-18T17:48:42.912Z,57.89
2022-12-18T17:51:12.026Z,59.66
2022-12-18T17:53:40.619Z,58.20
2022-12-18T17:56:10.876Z,58.75
2022-12-18T17:58:39.279Z,58.92
2022-12-18T18:01:08.543Z,57.91
2022-12-18T18:03:38.936Z,57.83
2022-12-18T18:06:07.628Z,57.93
2022-12-18T18:08:36.634Z,59.01
2022-12-18T18:11:20.305Z,58.80
2022-12-18T18:14:03.080Z,57.53
2022-12-18T18:16:34.516Z,57.44
2022-12-18T18:19:03.694Z,58.38
2022-12-18T18:21:32.185Z,58.64
2022-12-18T18:24:02.151Z,57.95
2022-12-18T18:26:31.220Z,59.22
2022-12-18T18:29:00.215Z,58.29
2022-12-18T18:31:33.117Z,57.72
2022-12-18T18:34:03.592Z,56.78
2022-12-18T18:36:31.312Z,57.34
2022-12-18T18:39:01.064Z,57.90
2022-12-18T18:41:29.894Z,58.63
2022-12-18T18:43:58.807Z,58.94
2022-12-18T18:46:27.188Z,58.25
2022-12-18T18:48:56.475Z,58.63
2022-12-18T18:51:24.816Z,58.75
2022-12-18T18:53:53.693Z,59.48
2022-12-18T18:59:10.930Z,59.80
2022-12-18T19:01:38.682Z,59.73
2022-12-18T19:04:07.833Z,59.87
2022-12-18T19:06:35.670Z,60.49
2022-12-18T19:09:04.847Z,60.57
2022-12-18T19:11:59.210Z,61.14
2022-12-18T19:14:27.018Z,61.33
2022-12-18T19:16:54.721Z,61.64
2022-12-18T19:19:25.245Z,62.23
2022-12-18T19:21:52.883Z,62.60
2022-12-18T19:24:22.409Z,63.40
2022-12-18T19:26:52.120Z,62.92
2022-12-18T19:29:21.480Z,62.98
2022-12-18T19:31:49.500Z,63.04
2022-12-18T19:34:17.333Z,63.36
2022-12-18T19:36:47.150Z,64.08
2022-12-18T19:39:17.052Z,64.07
2022-12-18T19:41:45.572Z,64.57
2022-12-18T19:44:15.235Z,65.02
2022-12-18T19:46:43.275Z,64.87
2022-12-18T19:49:11.543Z,65.13
2022-12-18T19:51:50.280Z,65.28
2022-12-18T19:54:18.400Z,65.07
2022-12-18T19:56:47.008Z,65.69
2022-12-18T19:59:15.190Z,65.70
2022-12-18T20:01:43.383Z,66.14
2022-12-18T20:04:11.205Z,65.91
2022-12-18T20:06:49.402Z,65.55
2022-12-18T20:09:17.582Z,66.04
2022-12-18T20:11:45.796Z,66.02
2022-12-18T20:14:16.909Z,66.17
2022-12-18T20:16:51.512Z,66.12
2022-12-18T20:19:19.836Z,65.91
2022-12-18T20:21:49.661Z,66.09
2022-12-18T20:24:17.340Z,66.41
2022-12-18T20:26:45.053Z,66.70
2022-12-18T20:29:12.833Z,66.40
2022-12-18T20:31:41.101Z,66.62
2022-12-18T20:34:08.798Z,66.55
2022-12-18T20:36:37.731Z,66.92
2022-12-18T20:39:12.112Z,66.98
2022-12-18T20:41:40.150Z,66.58
2022-12-18T20:44:19.015Z,66.67
2022-12-18T20:46:50.871Z,66.53
2022-12-18T20:49:18.653Z,66.68
2022-12-18T20:51:51.216Z,66.99
2022-12-18T20:54:20.738Z,67.05
2022-12-18T20:56:48.431Z,67.55
2022-12-18T20:59:19.587Z,67.39
2022-12-18T21:01:48.776Z,67.39
2022-12-18T21:04:18.369Z,67.36
2022-12-18T21:06:57.836Z,67.40
2022-12-18T21:09:37.251Z,67.60
2022-12-18T21:12:24.654Z,67.20
2022-12-18T21:14:59.435Z,67.53
2022-12-18T21:17:29.750Z,67.72
2022-12-18T21:20:00.622Z,67.78
2022-12-18T21:22:28.857Z,67.67
2022-12-18T21:24:58.028Z,68.21
2022-12-18T21:27:28.116Z,67.88
2022-12-18T21:29:55.904Z,67.49
2022-12-18T21:32:24.011Z,67.28
2022-12-18T21:34:57.166Z,68.06
2022-12-18T21:37:27.206Z,67.58
2022-12-18T21:39:54.837Z,68.02
2022-12-18T21:42:43.712Z,67.93
2022-12-18T21:45:12.934Z,67.43
2022-12-18T21:47:40.714Z,67.33
2022-12-18T21:50:09.101Z,67.54
2022-12-18T21:52:37.834Z,67.70
2022-12-18T21:55:09.535Z,67.30
2022-12-18T21:57:39.700Z,67.55
2022-12-18T22:00:18.474Z,67.28
2022-12-18T22:02:49.607Z,67.69
2022-12-18T22:05:37.339Z,67.23
2022-12-18T22:08:14.972Z,66.96
2022-12-18T22:10:45.443Z,67.24
2022-12-18T22:13:14.573Z,67.35
2022-12-18T22:15:42.432Z,66.93
2022-12-18T22:18:10.105Z,66.54
2022-12-18T22:20:37.766Z,66.63
2022-12-18T22:23:06.336Z,66.65
2022-12-18T22:25:34.785Z,66.60
2022-12-18T22:28:20.843Z,66.79
2022-12-18T22:30:50.225Z,66.59
2022-12-18T22:33:21.804Z,66.81
2022-12-18T22:35:49.505Z,66.22
2022-12-18T22:38:17.211Z,66.54
2022-12-18T22:40:44.912Z,66.69
2022-12-18T22:43:12.783Z,67.10
2022-12-18T22:45:40.473Z,66.84
2022-12-18T22:48:09.760Z,66.37
2022-12-18T22:50:37.482Z,66.61
2022-12-18T22:53:07.687Z,66.55
2022-12-18T22:55:35.535Z,66.26
2022-12-18T22:58:03.263Z,66.69
2022-12-18T23:00:30.971Z,66.88
2022-12-18T23:03:00.928Z,67.20
2022-12-18T23:05:31.420Z,67.26
2022-12-18T23:07:59.639Z,67.99
2022-12-18T23:10:28.848Z,67.20
2022-12-18T23:12:56.522Z,67.81
2022-12-18T23:15:28.066Z,68.24
2022-12-18T23:17:56.787Z,68.17
2022-12-18T23:20:24.526Z,68.31
2022-12-18T23:22:54.782Z,68.84
2022-12-18T23:25:22.499Z,68.70
2022-12-18T23:27:50.294Z,68.81
2022-12-18T23:30:17.993Z,69.14
2022-12-18T23:32:45.689Z,69.30
2022-12-18T23:35:15.876Z,69.42
2022-12-18T23:38:00.225Z,69.79
2022-12-18T23:40:30.417Z,69.87
2022-12-18T23:42:58.484Z,70.07
2022-12-18T23:45:26.140Z,70.00
2022-12-18T23:47:53.848Z,70.19
2022-12-18T23:50:27.773Z,70.24
2022-12-18T23:53:05.501Z,70.80
2022-12-18T23:55:40.350Z,70.82
2022-12-18T23:58:09.204Z,71.42
